North Wilmurt, New York
Current Conditions -  °F | °C
As of 6:53 PM on Tuesday 25 Nov 2014 (Local Time) from KRME Reporting Station
Overcast Overcast  
Wind Chill: 35°   Ceiling: 7000
Heat Index: 41°   Visibility: 10mi
Dew Point: 28°   Wind: 9mph
Humidity: 60%   Direction: 280°W
Pressure: 30.06"   Gusts: NA
Location:  43.3537°N, 75.1636°W
Report Text: KRME 252353Z 28008KT 10SM OVC070 05/M02 A3006 RMK AO2 SLP182 T00501022 10089 20033 51036
Loading
Personal Weather Stations






























Interactive Weather Map New forecast layout! Learn more

10-Day Weather Forecast

Advertisements
Track Severe Weather on mobile